Time;durP1;ratioP1;P1;durP2;ratioP2;P2;SDS_P1;SDS_P2;PMS_P1;PMS_P2;Temp;Humidity;BMP_temperature;BMP_pressure;BME280_temperature;BME280_humidity;BME280_pressure;Samples;Min_cycle;Max_cycle;Signal;HPM_P1;HPM_P2
2022/09/04 00:02:08;;;;;;;;;;;;;;;21.72;80.49;100092.41;5005524;28;20037;-68
2022/09/04 00:04:34;;;;;;;7.18;6.32;;;;;;;21.57;81.35;100100.03;5003946;28;19964;-67
2022/09/04 00:07:15;;;;;;;6.95;6.25;;;;;;;21.45;82.06;100093.75;5004913;28;20061;-68
2022/09/04 00:10:10;;;;;;;9.63;6.43;;;;;;;21.32;82.96;100098.25;5004778;28;20084;-68
2022/09/04 00:12:49;;;;;;;;;;;;;;;21.34;83.38;100098.84;5003292;28;20444;-68
2022/09/04 00:15:25;;;;;;;7.18;5.15;;;;;;;21.30;83.97;100107.59;5003547;28;20163;-68
2022/09/04 00:17:57;;;;;;;7.70;5.82;;;;;;;21.35;83.94;100113.97;5004601;28;20216;-68
2022/09/04 00:20:40;;;;;;;8.05;5.78;;;;;;;21.44;84.00;100116.34;5004427;28;20037;-67
2022/09/04 00:23:21;;;;;;;8.50;5.78;;;;;;;21.50;83.48;100118.97;4983725;28;20240;-68
2022/09/04 00:25:51;;;;;;;6.90;5.15;;;;;;;21.45;83.97;100124.22;4999571;28;20030;-68
2022/09/04 00:28:41;;;;;;;7.63;5.90;;;;;;;21.68;82.32;100132.44;5003702;28;20038;-68
2022/09/04 00:31:11;;;;;;;8.85;6.07;;;;;;;21.60;82.57;100132.75;5004102;28;20128;-68
2022/09/04 00:33:45;;;;;;;7.88;6.63;;;;;;;21.52;83.23;100129.53;5004334;28;20037;-68
2022/09/04 00:36:12;;;;;;;7.47;5.68;;;;;;;21.54;82.83;100130.13;5004432;28;20045;-68
2022/09/04 00:38:47;;;;;;;7.35;5.82;;;;;;;21.42;83.68;100135.44;5004032;28;20287;-68
2022/09/04 00:41:31;;;;;;;6.05;5.45;;;;;;;21.32;84.75;100133.25;5004125;28;20382;-68
2022/09/04 00:44:29;;;;;;;12.40;5.95;;;;;;;21.14;85.54;100140.44;5004379;28;20038;-68
2022/09/04 00:47:04;;;;;;;10.13;6.18;;;;;;;21.06;86.16;100146.13;5004315;28;20037;-68
2022/09/04 00:50:05;;;;;;;8.38;6.57;;;;;;;21.27;85.31;100148.44;4998602;28;20098;-68
2022/09/04 00:52:53;;;;;;;7.20;5.80;;;;;;;21.49;83.93;100159.63;5002397;28;20034;-68
2022/09/04 00:55:37;;;;;;;8.25;6.30;;;;;;;21.55;83.47;100159.53;5002507;28;20054;-68
2022/09/04 00:58:13;;;;;;;10.65;6.43;;;;;;;21.67;82.77;100162.31;5003835;28;20034;-68
2022/09/04 01:00:43;;;;;;;10.00;7.10;;;;;;;21.80;81.78;100158.66;5003689;28;20026;-67
2022/09/04 01:03:21;;;;;;;8.57;6.78;;;;;;;21.89;81.06;100150.06;5003673;28;20251;-68
2022/09/04 01:06:31;;;;;;;9.48;6.80;;;;;;;21.96;80.61;100153.50;5003946;28;20034;-68
2022/09/04 01:09:03;;;;;;;9.45;6.57;;;;;;;21.99;80.25;100163.00;4998706;28;20252;-68
2022/09/04 01:11:28;;;;;;;11.98;6.45;;;;;;;22.04;79.47;100159.66;5003494;28;20038;-68
2022/09/04 01:14:09;;;;;;;10.98;7.53;;;;;;;21.85;80.56;100162.34;5003701;28;20304;-68
2022/09/04 01:16:40;;;;;;;12.27;7.60;;;;;;;21.77;80.44;100159.91;4983940;28;20210;-68
2022/09/04 01:19:28;;;;;;;9.82;7.10;;;;;;;21.82;80.06;100170.03;5003447;28;20022;-68
2022/09/04 01:22:15;;;;;;;10.10;7.47;;;;;;;21.70;80.44;100164.56;5003346;28;20332;-68
2022/09/04 01:25:26;;;;;;;8.02;6.95;;;;;;;21.66;81.02;100169.59;5003311;28;20034;-67
2022/09/04 01:28:10;;;;;;;9.88;7.65;;;;;;;21.63;81.04;100170.03;4974071;28;20046;-68
2022/09/04 01:30:56;;;;;;;11.80;7.47;;;;;;;21.62;81.17;100162.16;4998876;28;20046;-68
2022/09/04 01:33:35;;;;;;;14.30;8.88;;;;;;;21.69;80.76;100162.91;5003175;28;20069;-68
2022/09/04 01:36:26;;;;;;;11.90;8.50;;;;;;;21.75;80.78;100164.72;5003231;28;20308;-68
2022/09/04 01:38:56;;;;;;;10.35;8.77;;;;;;;21.76;80.59;100165.53;4999566;28;20037;-68
2022/09/04 01:41:44;;;;;;;12.55;9.38;;;;;;;21.83;80.30;100155.50;5003155;28;20038;-68
2022/09/04 01:44:11;;;;;;;13.88;10.10;;;;;;;21.87;79.98;100160.25;5003338;28;20037;-68
2022/09/04 01:46:55;;;;;;;12.27;10.48;;;;;;;21.91;79.49;100166.00;5003029;28;20042;-68
2022/09/04 01:49:41;;;;;;;13.30;10.48;;;;;;;21.89;79.65;100163.53;4997664;28;20054;-68
2022/09/04 01:52:06;;;;;;;15.00;10.38;;;;;;;21.92;79.33;100168.47;5003142;28;20042;-68
2022/09/04 01:55:02;;;;;;;16.85;10.05;;;;;;;21.89;79.61;100158.16;5003083;28;20069;-68
2022/09/04 01:57:37;;;;;;;13.60;10.32;;;;;;;21.82;79.93;100165.47;4961520;28;20042;-68
2022/09/04 02:00:18;;;;;;;13.70;10.20;;;;;;;21.76;80.08;100160.97;5002850;28;20038;-68
2022/09/04 02:03:11;;;;;;;17.13;10.05;;;;;;;21.81;79.83;100165.69;5002616;28;20222;-68
2022/09/04 02:06:04;;;;;;;13.98;9.65;;;;;;;21.81;79.73;100168.38;5002769;28;20046;-68
2022/09/04 02:08:40;;;;;;;16.95;8.98;;;;;;;21.75;80.11;100172.81;5002734;28;20038;-68
2022/09/04 02:11:13;;;;;;;13.68;9.45;;;;;;;21.59;80.96;100179.59;5002699;28;20101;-68
2022/09/04 02:14:16;;;;;;;19.55;9.75;;;;;;;21.61;80.87;100179.38;5002652;28;20030;-68
2022/09/04 02:16:42;;;;;;;13.02;9.82;;;;;;;21.56;80.81;100181.91;5000971;28;20038;-68
2022/09/04 02:19:28;;;;;;;13.38;10.07;;;;;;;21.50;81.26;100178.25;5001371;28;20267;-68
2022/09/04 02:22:00;;;;;;;15.88;11.07;;;;;;;21.55;81.02;100185.66;5001342;28;20038;-68
2022/09/04 02:24:28;;;;;;;14.95;10.60;;;;;;;21.56;80.88;100182.75;4998962;28;20041;-68
2022/09/04 02:27:03;;;;;;;15.85;9.50;;;;;;;21.58;80.97;100180.66;4999505;28;20101;-68
2022/09/04 02:29:50;;;;;;;12.27;9.68;;;;;;;21.59;80.80;100179.59;5001081;28;20312;-68
2022/09/04 02:32:24;;;;;;;12.75;9.90;;;;;;;21.61;80.75;100166.72;4982009;28;20037;-68
2022/09/04 02:35:08;;;;;;;12.00;9.90;;;;;;;21.55;80.43;100173.00;5002102;28;20049;-68
2022/09/04 02:37:52;;;;;;;15.75;10.80;;;;;;;21.49;81.04;100175.78;5001367;28;20049;-68
2022/09/04 02:40:36;;;;;;;13.73;10.00;;;;;;;21.42;81.71;100177.72;5000812;28;20259;-68
2022/09/04 02:43:24;;;;;;;13.25;10.52;;;;;;;21.24;83.02;100175.81;4997772;28;20034;-68
2022/09/04 02:45:49;;;;;;;13.55;10.48;;;;;;;21.12;83.19;100180.25;4999264;28;20034;-68
2022/09/04 02:48:23;;;;;;;13.93;10.43;;;;;;;21.08;83.89;100177.16;5000994;28;20093;-68
2022/09/04 02:50:55;;;;;;;13.05;11.00;;;;;;;21.01;84.04;100171.00;4983902;28;20374;-68
2022/09/04 02:53:34;;;;;;;14.50;10.50;;;;;;;20.94;84.54;100179.13;5005495;28;20102;-68
2022/09/04 02:56:08;;;;;;;14.95;9.93;;;;;;;21.05;84.46;100174.91;5002764;28;20045;-68
2022/09/04 02:58:49;;;;;;;15.85;10.93;;;;;;;21.12;83.97;100182.94;5000037;28;20029;-68
2022/09/04 03:01:24;;;;;;;14.20;10.10;;;;;;;21.19;83.90;100175.63;5000434;28;20037;-68
2022/09/04 03:04:21;;;;;;;18.52;10.98;;;;;;;21.27;83.43;100175.38;5003241;28;20106;-68
2022/09/04 03:06:59;;;;;;;13.40;10.38;;;;;;;21.34;83.07;100176.13;5000632;28;20315;-68
2022/09/04 03:09:46;;;;;;;13.35;9.82;;;;;;;21.41;82.57;100170.69;5004610;28;20036;-68
2022/09/04 03:12:36;;;;;;;14.63;9.70;;;;;;;21.44;82.29;100178.31;5003373;28;20283;-68
2022/09/04 03:15:09;;;;;;;13.30;9.90;;;;;;;21.48;82.20;100177.66;5004416;28;20193;-68
2022/09/04 03:17:47;;;;;;;13.02;9.63;;;;;;;21.53;81.93;100176.97;5004554;28;20050;-68
2022/09/04 03:20:30;;;;;;;10.32;7.10;;;;;;;21.56;80.77;100176.53;5002278;28;20029;-68
2022/09/04 03:23:37;;;;;;;8.82;6.30;;;;;;;21.57;80.29;100191.66;5000736;28;20108;-68
2022/09/04 03:26:25;;;;;;;10.18;6.30;;;;;;;21.44;81.26;100181.84;4937338;28;20046;-68
2022/09/04 03:29:10;;;;;;;9.30;6.07;;;;;;;21.33;81.93;100179.88;4996658;28;20034;-68
2022/09/04 03:31:57;;;;;;;6.53;5.43;;;;;;;21.35;81.64;100186.69;4983768;28;20098;-68
2022/09/04 03:35:00;;;;;;;8.75;5.88;;;;;;;21.36;81.79;100190.19;5002985;28;20609;-68
2022/09/04 03:37:25;;;;;;;7.75;6.07;;;;;;;21.38;81.65;100184.59;5001409;28;20100;-68
2022/09/04 03:40:16;;;;;;;8.55;6.65;;;;;;;21.15;82.64;100199.47;5003628;28;20324;-68
2022/09/04 03:42:44;;;;;;;9.15;6.60;;;;;;;20.82;84.12;100202.41;5004101;28;20038;-69
2022/09/04 03:45:09;;;;;;;10.63;7.50;;;;;;;20.80;85.04;100207.16;4999233;28;20019;-68
2022/09/04 03:48:36;;;;;;;11.32;6.80;;;;;;;20.61;86.58;100208.94;5002816;28;20056;-68
2022/09/04 03:51:32;;;;;;;10.43;7.25;;;;;;;20.44;87.43;100207.78;4940038;29;20212;-68
2022/09/04 03:54:14;;;;;;;8.95;6.95;;;;;;;20.06;89.50;100208.56;5001322;28;20101;-68
2022/09/04 03:57:09;;;;;;;9.40;7.03;;;;;;;20.08;90.26;100214.53;5003385;28;20042;-68
2022/09/04 03:59:52;;;;;;;12.30;6.80;;;;;;;20.03;91.18;100214.34;5002008;28;20069;-68
2022/09/04 04:02:30;;;;;;;11.90;6.55;;;;;;;19.89;91.48;100209.22;4995733;28;20073;-67
2022/09/04 04:05:07;;;;;;;9.88;6.55;;;;;;;19.95;91.79;100217.28;4999110;28;20026;-68
2022/09/04 04:07:51;;;;;;;9.40;7.00;;;;;;;19.99;92.07;100228.44;4999204;28;20030;-68
2022/09/04 04:10:44;;;;;;;10.45;6.07;;;;;;;20.18;90.43;100232.09;4999275;28;20358;-68
2022/09/04 04:13:34;;;;;;;11.35;6.57;;;;;;;20.48;89.20;100238.59;5002932;28;20358;-68
2022/09/04 04:16:39;;;;;;;8.75;6.55;;;;;;;20.54;88.44;100247.69;5003735;28;20052;-68
2022/09/04 04:19:23;;;;;;;;;;;;;;;20.51;88.58;100238.16;5001673;28;20238;-68
2022/09/04 04:22:02;;;;;;;8.93;6.90;;;;;;;20.44;90.02;100247.31;5000852;28;20307;-69
2022/09/04 04:24:48;;;;;;;12.65;7.03;;;;;;;20.39;90.43;100248.78;5001020;28;20030;-68
2022/09/04 04:27:44;;;;;;;14.07;7.38;;;;;;;20.24;91.91;100255.44;5001218;28;20110;-68
2022/09/04 04:30:13;;;;;;;10.73;7.20;;;;;;;20.27;92.67;100253.16;4999132;28;20038;-68
2022/09/04 04:32:42;;;;;;;10.65;7.10;;;;;;;20.03;92.63;100253.84;5003143;28;20030;-68
2022/09/04 04:35:19;;;;;;;9.35;6.97;;;;;;;19.73;93.79;100269.59;5003034;28;20507;-68
2022/09/04 04:38:25;;;;;;;10.10;7.60;;;;;;;19.34;97.51;100265.88;5001272;28;20030;-68
2022/09/04 04:41:05;;;;;;;12.13;7.25;;;;;;;19.40;96.74;100261.53;5001474;28;20057;-68
2022/09/04 04:43:42;;;;;;;12.77;7.80;;;;;;;19.55;95.67;100272.09;5001101;28;20018;-68
2022/09/04 04:46:10;;;;;;;14.35;7.38;;;;;;;19.56;94.96;100274.56;5002970;28;20046;-68
2022/09/04 04:48:48;;;;;;;11.48;7.53;;;;;;;19.41;96.94;100280.13;5001777;28;20029;-68
2022/09/04 04:51:52;;;;;;;12.63;7.30;;;;;;;19.52;95.49;100286.75;4999622;28;20034;-68
2022/09/04 04:54:50;;;;;;;11.25;7.60;;;;;;;19.83;95.44;100296.06;4998432;28;20280;-68
2022/09/04 04:57:18;;;;;;;12.45;7.55;;;;;;;20.07;92.57;100296.22;4983200;28;20224;-68
2022/09/04 04:59:46;;;;;;;12.48;7.40;;;;;;;20.00;91.14;100294.59;4985961;28;20030;-68
2022/09/04 05:02:41;;;;;;;11.50;6.90;;;;;;;20.09;90.96;100302.22;5000034;28;20045;-68
2022/09/04 05:05:38;;;;;;;11.18;7.30;;;;;;;19.96;91.83;100309.47;4999670;28;20053;-68
2022/09/04 05:08:40;;;;;;;12.68;6.82;;;;;;;20.07;90.96;100300.78;5000629;28;20064;-68
2022/09/04 05:11:39;;;;;;;10.52;7.25;;;;;;;20.17;89.76;100311.91;5000184;28;20038;-68
2022/09/04 05:14:17;;;;;;;15.18;7.57;;;;;;;20.06;89.48;100313.38;4995851;28;20273;-68
2022/09/04 05:16:48;;;;;;;11.00;7.13;;;;;;;19.59;92.11;100316.31;4998854;28;20081;-67
2022/09/04 05:19:28;;;;;;;13.27;6.93;;;;;;;19.65;93.43;100327.06;5000689;28;20058;-68
2022/09/04 05:22:15;;;;;;;14.27;7.47;;;;;;;19.76;92.31;100330.97;5000625;28;20030;-68
2022/09/04 05:24:58;;;;;;;9.98;6.53;;;;;;;19.97;91.78;100329.94;5000126;28;20494;-67
2022/09/04 05:27:29;;;;;;;11.23;7.28;;;;;;;19.82;91.20;100332.03;5000604;28;20046;-68
2022/09/04 05:30:11;;;;;;;11.63;7.30;;;;;;;19.91;91.29;100341.53;4999723;28;20041;-68
2022/09/04 05:32:50;;;;;;;14.52;7.30;;;;;;;19.93;89.83;100344.84;4999514;28;20057;-68
2022/09/04 05:35:36;;;;;;;12.70;7.00;;;;;;;20.00;88.80;100342.97;4998181;28;20338;-68
2022/09/04 05:38:08;;;;;;;9.90;7.05;;;;;;;19.97;88.40;100346.91;4998827;28;20053;-68
2022/09/04 05:41:05;;;;;;;10.02;6.72;;;;;;;19.74;89.67;100363.44;4997653;28;20061;-68
2022/09/04 05:43:57;;;;;;;20.13;6.80;;;;;;;19.93;89.22;100364.47;5000958;28;20034;-68
2022/09/04 05:46:28;;;;;;;13.02;6.55;;;;;;;20.06;87.52;100359.09;5001935;28;20097;-68
2022/09/04 05:49:08;;;;;;;7.70;5.43;;;;;;;20.21;86.27;100360.72;5000181;28;20351;-68
2022/09/04 05:52:16;;;;;;;10.43;6.05;;;;;;;20.30;86.59;100364.84;5000536;28;20098;-68
2022/09/04 05:54:48;;;;;;;13.95;6.30;;;;;;;20.30;85.73;100359.47;4999325;28;20037;-68
2022/09/04 05:57:46;;;;;;;11.82;5.13;;;;;;;20.44;84.13;100366.50;5001486;28;20105;-68
2022/09/04 06:00:19;;;;;;;9.98;5.82;;;;;;;20.44;84.62;100363.81;5000315;28;20026;-68
2022/09/04 06:03:23;;;;;;;8.88;5.30;;;;;;;20.42;83.23;100360.50;4999554;28;20046;-68
2022/09/04 06:05:54;;;;;;;8.48;4.85;;;;;;;20.22;84.23;100370.44;4998521;28;20042;-68
2022/09/04 06:08:40;;;;;;;8.13;4.22;;;;;;;20.27;83.69;100357.19;4999424;28;20034;-68
2022/09/04 06:11:24;;;;;;;10.05;4.90;;;;;;;20.39;83.55;100358.22;4997481;28;20025;-68
2022/09/04 06:14:08;;;;;;;10.23;5.13;;;;;;;20.28;83.56;100348.09;4998456;28;20331;-68
2022/09/04 06:16:39;;;;;;;7.15;5.60;;;;;;;20.39;83.82;100348.31;5001451;28;20061;-68
2022/09/04 06:19:18;;;;;;;6.13;4.72;;;;;;;20.53;81.91;100332.13;5000007;28;20081;-68
2022/09/04 06:22:13;;;;;;;9.43;5.53;;;;;;;20.77;82.23;100347.53;4998586;28;20362;-68
2022/09/04 06:25:00;;;;;;;7.22;5.50;;;;;;;20.88;81.83;100351.47;4998571;28;20053;-68
2022/09/04 06:27:54;;;;;;;10.70;5.60;;;;;;;20.84;81.50;100347.53;5000470;28;20284;-68
2022/09/04 06:30:20;;;;;;;8.07;6.32;;;;;;;20.61;83.49;100346.16;4983978;28;20309;-68
2022/09/04 06:33:02;;;;;;;9.80;6.53;;;;;;;20.85;83.66;100343.81;4998728;28;20109;-68
2022/09/04 06:35:50;;;;;;;10.07;6.28;;;;;;;21.25;80.93;100344.44;4997094;28;20088;-68
2022/09/04 06:38:37;;;;;;;14.05;5.63;;;;;;;21.33;80.75;100345.00;4999022;28;20030;-68
2022/09/04 06:41:16;;;;;;;12.13;6.30;;;;;;;21.34;79.88;100362.00;5001014;28;20034;-68
2022/09/04 06:44:07;;;;;;;10.43;5.47;;;;;;;21.35;78.34;100353.69;4999897;28;20023;-68
2022/09/04 06:46:43;;;;;;;6.70;5.15;;;;;;;21.23;78.43;100355.44;4991986;28;20323;-68
2022/09/04 06:49:14;;;;;;;9.57;5.32;;;;;;;21.49;77.93;100359.00;4998682;28;20031;-68
2022/09/04 06:51:41;;;;;;;15.65;5.65;;;;;;;21.48;79.25;100363.56;4998827;28;20300;-68
2022/09/04 06:54:25;;;;;;;11.55;6.07;;;;;;;21.47;80.24;100351.13;4997356;28;20074;-68
2022/09/04 06:57:03;;;;;;;8.52;6.07;;;;;;;21.75;78.99;100357.97;4999380;28;20352;-68
2022/09/04 06:59:53;;;;;;;11.60;5.90;;;;;;;21.66;78.06;100355.53;4999267;28;20077;-68
2022/09/04 07:02:27;;;;;;;8.80;5.45;;;;;;;21.84;77.43;100351.25;4997453;28;20110;-68
2022/09/04 07:05:21;;;;;;;13.75;5.90;;;;;;;21.72;77.59;100348.44;5000894;28;20026;-68
2022/09/04 07:08:08;;;;;;;11.82;5.20;;;;;;;21.71;78.36;100346.78;5000402;28;20231;-68
2022/09/04 07:10:51;;;;;;;7.72;5.05;;;;;;;21.81;76.63;100332.81;5001279;28;20054;-69
2022/09/04 07:14:15;;;;;;;6.53;4.85;;;;;;;21.82;76.76;100312.91;4993103;28;20030;-68
2022/09/04 07:17:06;;;;;;;7.80;5.05;;;;;;;22.23;74.10;100329.34;4958724;28;20050;-68
2022/09/04 07:19:44;;;;;;;8.98;5.18;;;;;;;22.34;73.63;100330.47;4984572;28;20046;-68
2022/09/04 07:22:49;;;;;;;6.57;4.60;;;;;;;22.29;73.59;100319.53;4999097;28;20057;-68
2022/09/04 07:25:16;;;;;;;7.57;5.05;;;;;;;22.29;73.41;100322.22;4998042;28;20065;-68
2022/09/04 07:28:17;;;;;;;6.10;4.70;;;;;;;22.43;72.08;100329.13;4999349;28;20042;-68
2022/09/04 07:31:02;;;;;;;7.55;5.13;;;;;;;22.62;71.42;100322.66;4997247;28;20251;-68
2022/09/04 07:34:08;;;;;;;7.68;5.13;;;;;;;22.54;72.57;100322.16;4997835;28;20097;-68
2022/09/04 07:37:00;;;;;;;6.00;4.75;;;;;;;22.88;71.18;100318.81;4959299;28;20073;-68
2022/09/04 07:39:44;;;;;;;5.47;4.82;;;;;;;22.88;70.58;100321.53;5000522;28;20031;-68
2022/09/04 07:42:18;;;;;;;7.53;4.88;;;;;;;22.80;70.51;100329.94;5000545;28;20023;-68
2022/09/04 07:44:59;;;;;;;5.68;5.05;;;;;;;23.22;69.04;100320.03;4999916;28;20101;-68
2022/09/04 07:47:34;;;;;;;5.93;5.20;;;;;;;23.76;67.74;100320.84;4984028;28;20193;-68
2022/09/04 07:50:06;;;;;;;6.88;4.93;;;;;;;24.18;66.28;100326.16;4998751;28;20052;-68
2022/09/04 07:52:59;;;;;;;5.15;4.53;;;;;;;24.11;64.68;100326.28;5003727;28;20101;-68
2022/09/04 07:55:40;;;;;;;6.53;4.80;;;;;;;23.63;66.74;100331.91;5002066;28;20022;-68
2022/09/04 07:58:30;;;;;;;7.28;4.20;;;;;;;23.47;67.90;100324.44;5001552;28;20019;-67
2022/09/04 08:01:08;;;;;;;6.60;4.65;;;;;;;23.77;67.01;100324.38;5002391;28;20046;-68
2022/09/04 08:04:17;;;;;;;6.95;4.20;;;;;;;23.90;65.15;100324.16;5001559;28;20034;-68
2022/09/04 08:06:59;;;;;;;6.68;4.53;;;;;;;23.67;67.43;100330.38;4999729;28;20399;-68
2022/09/04 08:09:58;;;;;;;5.97;4.78;;;;;;;24.19;65.14;100336.75;4999635;28;20033;-68
2022/09/04 08:12:52;;;;;;;6.45;4.65;;;;;;;24.34;64.21;100338.19;5001485;28;20350;-68
2022/09/04 08:15:24;;;;;;;8.73;4.72;;;;;;;24.63;63.39;100329.06;5000881;28;20098;-68
2022/09/04 08:18:23;;;;;;;5.88;4.20;;;;;;;24.97;62.20;100332.75;5001225;28;20030;-68
2022/09/04 08:21:20;;;;;;;6.13;4.75;;;;;;;25.48;60.23;100324.69;4999496;28;20034;-68
2022/09/04 08:23:54;;;;;;;7.43;4.15;;;;;;;25.65;58.91;100317.38;5000997;28;20038;-68
2022/09/04 08:26:40;;;;;;;8.93;5.55;;;;;;;25.92;58.93;100323.00;5002046;28;20167;-69
2022/09/04 08:29:19;;;;;;;8.88;6.60;;;;;;;26.49;56.05;100317.31;5003153;28;20316;-68
2022/09/04 08:32:21;;;;;;;7.82;5.03;;;;;;;26.64;55.56;100315.59;5001513;28;20046;-68
2022/09/04 08:35:24;;;;;;;6.10;5.18;;;;;;;26.30;55.73;100311.34;5001668;28;20041;-68
2022/09/04 08:38:27;;;;;;;10.05;7.20;;;;;;;26.12;56.23;100320.59;5001877;28;20280;-68
2022/09/04 08:41:24;;;;;;;8.82;7.15;;;;;;;26.33;56.93;100310.88;5001009;28;20044;-68
2022/09/04 08:44:23;;;;;;;6.88;5.38;;;;;;;26.07;56.35;100309.69;5004089;28;20228;-68
2022/09/04 08:47:10;;;;;;;8.55;5.50;;;;;;;26.01;57.52;100307.97;4999975;28;20041;-69
2022/09/04 08:50:08;;;;;;;9.82;6.22;;;;;;;25.70;57.94;100309.38;4981824;28;20291;-68
2022/09/04 08:52:56;;;;;;;8.73;6.03;;;;;;;25.83;57.82;100300.88;5003675;28;20049;-68
2022/09/04 08:55:31;;;;;;;6.75;5.80;;;;;;;26.01;57.79;100300.63;5003787;28;20030;-68
2022/09/04 08:58:24;;;;;;;8.25;6.47;;;;;;;26.48;56.06;100296.66;5003897;28;20260;-68
2022/09/04 09:01:03;;;;;;;10.77;7.18;;;;;;;26.42;56.02;100289.53;4997697;28;20344;-68
2022/09/04 09:04:00;;;;;;;9.25;7.50;;;;;;;26.74;55.22;100295.88;5002801;28;20049;-68
2022/09/04 09:06:25;;;;;;;8.93;7.63;;;;;;;27.02;55.22;100295.66;5003166;28;20089;-68
2022/09/04 09:09:19;;;;;;;10.00;7.50;;;;;;;27.09;53.29;100295.50;5003370;28;20042;-68
2022/09/04 09:12:16;;;;;;;8.52;6.82;;;;;;;27.16;53.82;100300.72;5001941;28;20038;-68
2022/09/04 09:14:59;;;;;;;10.45;7.18;;;;;;;27.02;52.70;100303.00;5002178;28;20042;-69
2022/09/04 09:17:37;;;;;;;8.75;6.95;;;;;;;26.89;52.83;100297.94;5001631;28;20034;-68
2022/09/04 09:20:24;;;;;;;10.82;7.45;;;;;;;26.91;53.43;100293.06;5002541;28;20379;-69
2022/09/04 09:23:14;;;;;;;10.38;7.28;;;;;;;27.23;52.09;100302.16;5002661;28;20048;-68
2022/09/04 09:25:54;;;;;;;10.15;7.63;;;;;;;27.28;52.44;100301.38;5001475;28;20359;-68
2022/09/04 09:28:41;;;;;;;8.23;6.95;;;;;;;27.22;52.95;100292.34;5002415;28;20105;-68
2022/09/04 09:31:34;;;;;;;8.98;7.50;;;;;;;27.13;53.59;100301.22;5002087;28;20080;-68
2022/09/04 09:34:09;;;;;;;13.05;6.93;;;;;;;26.98;52.63;100294.53;5002170;28;20101;-69
2022/09/04 09:36:46;;;;;;;9.07;7.32;;;;;;;26.77;53.90;100305.41;5002583;28;20224;-69
2022/09/04 09:39:42;;;;;;;8.93;7.25;;;;;;;26.76;54.32;100309.22;5002294;28;20054;-69
2022/09/04 09:42:08;;;;;;;10.10;7.70;;;;;;;26.70;53.77;100317.31;5001015;28;20052;-68
2022/09/04 09:44:41;;;;;;;9.00;6.95;;;;;;;26.72;54.35;100320.59;4998423;28;20022;-69
2022/09/04 09:47:29;;;;;;;9.73;7.78;;;;;;;26.80;55.24;100311.16;4999387;28;20314;-69
2022/09/04 09:49:54;;;;;;;9.63;7.13;;;;;;;26.57;54.69;100312.25;4998812;28;20030;-68
2022/09/04 09:52:29;;;;;;;11.10;7.90;;;;;;;26.33;56.49;100308.16;4998642;28;20432;-68
2022/09/04 09:55:10;;;;;;;10.85;8.63;;;;;;;26.34;55.90;100297.03;4998421;28;20034;-69
2022/09/04 09:57:54;;;;;;;10.20;8.48;;;;;;;26.32;57.00;100299.19;4998003;28;20301;-68
2022/09/04 10:00:24;;;;;;;14.90;10.07;;;;;;;26.38;56.11;100271.03;4998440;28;20136;-69
2022/09/04 10:03:27;;;;;;;9.80;7.72;;;;;;;26.46;55.01;100296.09;4998622;28;20030;-68
2022/09/04 10:06:26;;;;;;;8.57;7.65;;;;;;;26.44;54.59;100293.63;4998702;28;20084;-68
2022/09/04 10:09:00;;;;;;;9.55;7.72;;;;;;;26.31;56.42;100291.25;4997541;28;20034;-68
2022/09/04 10:11:41;;;;;;;11.75;7.78;;;;;;;26.41;54.71;100283.28;4998022;28;20067;-68
2022/09/04 10:14:35;;;;;;;11.93;7.90;;;;;;;26.36;55.01;100277.78;4995459;28;20023;-68
2022/09/04 10:17:18;;;;;;;;;;;;;;;26.36;54.32;100294.06;4999561;28;20066;-68
2022/09/04 10:19:53;;;;;;;11.98;8.05;;;;;;;26.12;55.34;100277.19;4998987;28;19914;-68
2022/09/04 10:23:02;;;;;;;10.13;7.57;;;;;;;26.42;54.49;100282.19;4998614;28;20335;-69
2022/09/04 10:25:46;;;;;;;9.70;8.32;;;;;;;26.24;55.20;100277.88;4980180;28;20551;-69
2022/09/04 10:28:41;;;;;;;12.70;9.73;;;;;;;26.15;56.47;100286.72;4997909;28;20042;-68
2022/09/04 10:31:22;;;;;;;11.18;9.20;;;;;;;26.21;54.55;100280.28;4998078;28;20031;-69
2022/09/04 10:34:10;;;;;;;8.43;7.53;;;;;;;26.28;54.98;100280.91;4998941;28;20213;-67
2022/09/04 10:37:18;;;;;;;10.20;8.02;;;;;;;26.00;55.01;100279.16;4997802;28;20062;-67
2022/09/04 10:40:37;;;;;;;11.95;8.13;;;;;;;25.82;57.20;100277.53;4997405;28;20343;-67
2022/09/04 10:43:40;;;;;;;11.75;8.05;;;;;;;25.93;56.25;100273.91;4998388;28;20097;-69
2022/09/04 10:46:58;;;;;;;11.27;8.75;;;;;;;26.08;57.14;100265.19;4996234;28;20042;-68
2022/09/04 10:49:44;;;;;;;13.70;8.77;;;;;;;26.41;56.56;100269.69;4895498;29;20103;-68
2022/09/04 10:52:34;;;;;;;10.15;8.02;;;;;;;26.73;54.91;100262.47;4895465;29;20065;-68
2022/09/04 10:55:10;;;;;;;9.50;7.65;;;;;;;26.93;53.59;100263.75;4973880;28;20037;-68
2022/09/04 10:57:58;;;;;;;11.48;7.43;;;;;;;26.91;54.18;100247.69;5000066;28;20042;-68
2022/09/04 11:01:19;;;;;;;8.77;7.57;;;;;;;27.07;51.76;100242.47;5000459;28;20040;-68
2022/09/04 11:04:12;;;;;;;9.10;6.78;;;;;;;27.25;50.72;100239.34;4966522;28;20061;-69
2022/09/04 11:06:51;;;;;;;10.25;7.85;;;;;;;27.32;50.65;100239.94;5000992;28;20042;-68
2022/09/04 11:09:32;;;;;;;8.73;7.50;;;;;;;26.88;51.46;100222.94;5000399;28;20034;-68
2022/09/04 11:12:12;;;;;;;10.18;8.65;;;;;;;26.91;53.13;100217.81;5002364;28;20109;-68
2022/09/04 11:15:12;;;;;;;10.40;7.80;;;;;;;26.85;52.72;100201.72;5005010;28;20089;-68
2022/09/04 11:17:40;;;;;;;11.50;8.25;;;;;;;27.14;51.97;100208.53;5004699;28;20102;-68
2022/09/04 11:20:32;;;;;;;7.75;6.95;;;;;;;26.97;53.25;100203.22;5004753;28;20034;-69
2022/09/04 11:23:17;;;;;;;9.90;7.20;;;;;;;27.13;51.36;100211.53;5004703;28;20034;-68
2022/09/04 11:26:06;;;;;;;8.88;7.18;;;;;;;27.03;50.15;100196.75;5003420;28;20072;-68
2022/09/04 11:29:02;;;;;;;11.88;6.80;;;;;;;26.83;52.99;100195.72;5004638;28;20030;-68
2022/09/04 11:32:00;;;;;;;8.25;6.95;;;;;;;26.49;53.48;100193.22;5003723;28;20103;-68
2022/09/04 11:35:12;;;;;;;8.45;7.20;;;;;;;26.62;52.95;100194.69;5003934;28;20097;-69
2022/09/04 11:37:44;;;;;;;9.43;7.50;;;;;;;26.60;53.35;100194.13;5001590;28;20058;-68
2022/09/04 11:40:34;;;;;;;9.10;7.50;;;;;;;26.21;55.48;100196.13;5004133;28;20041;-68
2022/09/04 11:43:35;;;;;;;8.65;7.20;;;;;;;26.43;54.17;100185.28;5004030;28;20045;-68
2022/09/04 11:46:19;;;;;;;11.98;7.40;;;;;;;26.72;53.80;100184.75;5004338;28;20033;-68
2022/09/04 11:49:21;;;;;;;9.77;7.60;;;;;;;26.50;54.38;100178.56;5003048;28;20041;-69
2022/09/04 11:52:09;;;;;;;12.93;7.38;;;;;;;26.68;54.85;100183.63;5004027;28;20034;-68
2022/09/04 11:54:52;;;;;;;11.60;8.45;;;;;;;26.33;53.20;100183.25;5000708;28;20022;-69
2022/09/04 11:57:23;;;;;;;10.20;7.90;;;;;;;25.97;54.45;100190.09;5004090;28;20034;-68
2022/09/04 12:00:00;;;;;;;9.77;7.32;;;;;;;25.92;54.21;100180.00;5004015;28;20403;-69
2022/09/04 12:02:50;;;;;;;7.75;6.95;;;;;;;26.28;53.61;100161.47;5003718;28;20058;-68
2022/09/04 12:05:41;;;;;;;8.65;7.57;;;;;;;26.40;52.73;100154.84;5003566;28;20042;-68
2022/09/04 12:08:19;;;;;;;8.27;7.15;;;;;;;26.31;52.84;100155.53;5004555;28;20060;-68
2022/09/04 12:11:00;;;;;;;7.25;6.53;;;;;;;26.15;53.12;100167.28;4998637;28;20049;-68
2022/09/04 12:13:26;;;;;;;8.13;6.72;;;;;;;26.23;52.84;100162.22;5004085;28;20030;-68
2022/09/04 12:16:28;;;;;;;10.10;7.47;;;;;;;26.24;53.88;100157.63;5004658;28;20042;-69
2022/09/04 12:19:38;;;;;;;9.57;7.68;;;;;;;26.49;54.90;100163.34;5000737;28;20034;-68
2022/09/04 12:22:29;;;;;;;9.18;7.78;;;;;;;26.31;55.14;100166.38;4964223;28;20046;-68
2022/09/04 12:25:08;;;;;;;10.90;7.75;;;;;;;26.14;53.92;100162.94;4990785;28;20069;-68
2022/09/04 12:27:56;;;;;;;9.05;7.10;;;;;;;25.96;54.25;100164.88;5004392;28;20046;-68
2022/09/04 12:30:31;;;;;;;11.18;7.75;;;;;;;26.09;54.04;100158.25;5003444;28;20026;-68
2022/09/04 12:33:17;;;;;;;10.50;8.10;;;;;;;26.28;53.28;100162.28;5004453;28;20072;-68
2022/09/04 12:35:51;;;;;;;10.35;7.50;;;;;;;26.41;52.60;100152.94;5004225;28;20026;-68
2022/09/04 12:38:29;;;;;;;10.65;7.47;;;;;;;26.58;52.24;100150.13;5004265;28;20104;-68
2022/09/04 12:40:57;;;;;;;9.40;7.60;;;;;;;26.58;51.82;100144.69;5004151;28;20061;-68
2022/09/04 12:44:00;;;;;;;11.65;7.95;;;;;;;26.66;51.79;100139.59;5003136;28;20556;-68